sensor_id;sensor_type;location;lat;lon;timestamp;P1;durP1;ratioP1;P2;durP2;ratioP2
55423;SDS011;41294;42.666;23.350;2022-10-30T00:00:44;13.57;;;8.40;;
55423;SDS011;41294;42.666;23.350;2022-10-30T00:03:11;13.70;;;8.43;;
55423;SDS011;41294;42.666;23.350;2022-10-30T00:05:41;10.53;;;8.10;;
55423;SDS011;41294;42.666;23.350;2022-10-30T00:08:17;13.07;;;7.80;;
55423;SDS011;41294;42.666;23.350;2022-10-30T00:10:44;12.13;;;8.10;;
55423;SDS011;41294;42.666;23.350;2022-10-30T00:13:11;13.73;;;9.23;;
55423;SDS011;41294;42.666;23.350;2022-10-30T00:15:37;12.07;;;8.50;;
55423;SDS011;41294;42.666;23.350;2022-10-30T00:18:03;10.53;;;7.70;;
55423;SDS011;41294;42.666;23.350;2022-10-30T00:20:29;10.93;;;8.50;;
55423;SDS011;41294;42.666;23.350;2022-10-30T00:22:55;11.40;;;7.77;;
55423;SDS011;41294;42.666;23.350;2022-10-30T00:25:20;12.27;;;8.20;;
55423;SDS011;41294;42.666;23.350;2022-10-30T00:27:46;12.43;;;8.33;;
55423;SDS011;41294;42.666;23.350;2022-10-30T00:30:11;11.40;;;7.90;;
55423;SDS011;41294;42.666;23.350;2022-10-30T00:32:39;9.47;;;7.73;;
55423;SDS011;41294;42.666;23.350;2022-10-30T00:35:05;8.93;;;7.47;;
55423;SDS011;41294;42.666;23.350;2022-10-30T00:37:30;11.80;;;8.67;;
55423;SDS011;41294;42.666;23.350;2022-10-30T00:39:56;13.10;;;8.23;;
55423;SDS011;41294;42.666;23.350;2022-10-30T00:42:21;15.37;;;8.33;;
55423;SDS011;41294;42.666;23.350;2022-10-30T00:44:47;11.90;;;8.03;;
55423;SDS011;41294;42.666;23.350;2022-10-30T00:49:47;16.33;;;8.77;;
55423;SDS011;41294;42.666;23.350;2022-10-30T00:52:23;13.53;;;8.67;;
55423;SDS011;41294;42.666;23.350;2022-10-30T00:54:53;11.07;;;7.87;;
55423;SDS011;41294;42.666;23.350;2022-10-30T00:57:21;15.90;;;8.00;;
55423;SDS011;41294;42.666;23.350;2022-10-30T00:59:47;12.30;;;8.47;;
55423;SDS011;41294;42.666;23.350;2022-10-30T01:02:14;10.33;;;8.33;;
55423;SDS011;41294;42.666;23.350;2022-10-30T01:04:41;16.63;;;8.67;;
55423;SDS011;41294;42.666;23.350;2022-10-30T01:07:10;16.47;;;8.13;;
55423;SDS011;41294;42.666;23.350;2022-10-30T01:09:39;11.43;;;8.53;;
55423;SDS011;41294;42.666;23.350;2022-10-30T01:12:05;14.77;;;8.10;;
55423;SDS011;41294;42.666;23.350;2022-10-30T01:14:30;11.63;;;7.73;;
55423;SDS011;41294;42.666;23.350;2022-10-30T01:25:28;9.83;;;7.90;;
55423;SDS011;41294;42.666;23.350;2022-10-30T01:31:07;12.30;;;8.37;;
55423;SDS011;41294;42.666;23.350;2022-10-30T01:34:20;13.53;;;8.20;;
55423;SDS011;41294;42.666;23.350;2022-10-30T01:36:51;9.40;;;7.67;;
55423;SDS011;41294;42.666;23.350;2022-10-30T01:39:25;13.37;;;8.23;;
55423;SDS011;41294;42.666;23.350;2022-10-30T01:41:55;12.33;;;8.37;;
55423;SDS011;41294;42.666;23.350;2022-10-30T01:44:25;12.37;;;7.73;;
55423;SDS011;41294;42.666;23.350;2022-10-30T01:52:09;11.07;;;8.47;;
55423;SDS011;41294;42.666;23.350;2022-10-30T01:57:21;11.83;;;9.27;;
55423;SDS011;41294;42.666;23.350;2022-10-30T02:00:00;12.13;;;7.97;;
55423;SDS011;41294;42.666;23.350;2022-10-30T02:02:30;13.40;;;8.37;;
55423;SDS011;41294;42.666;23.350;2022-10-30T02:04:57;10.90;;;8.23;;
55423;SDS011;41294;42.666;23.350;2022-10-30T02:07:23;12.30;;;7.90;;
55423;SDS011;41294;42.666;23.350;2022-10-30T02:09:52;10.07;;;7.47;;
55423;SDS011;41294;42.666;23.350;2022-10-30T02:12:19;12.50;;;8.47;;
55423;SDS011;41294;42.666;23.350;2022-10-30T02:14:53;10.73;;;7.77;;
55423;SDS011;41294;42.666;23.350;2022-10-30T02:17:21;12.30;;;8.40;;
55423;SDS011;41294;42.666;23.350;2022-10-30T02:19:47;14.87;;;8.20;;
55423;SDS011;41294;42.666;23.350;2022-10-30T02:22:13;11.00;;;8.43;;
55423;SDS011;41294;42.666;23.350;2022-10-30T02:24:38;14.77;;;8.20;;
55423;SDS011;41294;42.666;23.350;2022-10-30T02:27:04;9.57;;;7.77;;
55423;SDS011;41294;42.666;23.350;2022-10-30T02:29:29;12.23;;;8.30;;
55423;SDS011;41294;42.666;23.350;2022-10-30T02:31:55;11.47;;;8.47;;
55423;SDS011;41294;42.666;23.350;2022-10-30T02:34:20;13.53;;;8.33;;
55423;SDS011;41294;42.666;23.350;2022-10-30T02:36:46;11.47;;;7.67;;
55423;SDS011;41294;42.666;23.350;2022-10-30T02:39:11;11.23;;;8.20;;
55423;SDS011;41294;42.666;23.350;2022-10-30T02:41:36;11.30;;;8.07;;
55423;SDS011;41294;42.666;23.350;2022-10-30T02:44:02;12.37;;;8.13;;
55423;SDS011;41294;42.666;23.350;2022-10-30T02:46:28;12.10;;;8.67;;
55423;SDS011;41294;42.666;23.350;2022-10-30T02:48:53;9.73;;;8.30;;
55423;SDS011;41294;42.666;23.350;2022-10-30T02:51:19;13.87;;;8.20;;
55423;SDS011;41294;42.666;23.350;2022-10-30T02:53:44;16.03;;;8.67;;
55423;SDS011;41294;42.666;23.350;2022-10-30T02:56:11;11.57;;;8.37;;
55423;SDS011;41294;42.666;23.350;2022-10-30T02:58:38;13.60;;;8.77;;
55423;SDS011;41294;42.666;23.350;2022-10-30T03:01:05;15.33;;;9.00;;
55423;SDS011;41294;42.666;23.350;2022-10-30T03:03:34;12.77;;;8.53;;
55423;SDS011;41294;42.666;23.350;2022-10-30T03:06:01;12.37;;;8.53;;
55423;SDS011;41294;42.666;23.350;2022-10-30T03:08:31;13.43;;;8.03;;
55423;SDS011;41294;42.666;23.350;2022-10-30T03:11:16;14.20;;;8.90;;
55423;SDS011;41294;42.666;23.350;2022-10-30T03:13:43;13.17;;;8.70;;
55423;SDS011;41294;42.666;23.350;2022-10-30T03:16:11;10.33;;;8.90;;
55423;SDS011;41294;42.666;23.350;2022-10-30T03:18:39;12.53;;;8.87;;
55423;SDS011;41294;42.666;23.350;2022-10-30T03:21:05;12.90;;;9.00;;
55423;SDS011;41294;42.666;23.350;2022-10-30T03:23:33;8.63;;;7.73;;
55423;SDS011;41294;42.666;23.350;2022-10-30T03:25:59;14.67;;;8.40;;
55423;SDS011;41294;42.666;23.350;2022-10-30T03:28:26;12.80;;;9.13;;
55423;SDS011;41294;42.666;23.350;2022-10-30T03:31:26;13.50;;;9.20;;
55423;SDS011;41294;42.666;23.350;2022-10-30T03:33:44;12.00;;;8.50;;
55423;SDS011;41294;42.666;23.350;2022-10-30T03:36:10;9.70;;;8.43;;
55423;SDS011;41294;42.666;23.350;2022-10-30T03:38:37;12.27;;;8.73;;
55423;SDS011;41294;42.666;23.350;2022-10-30T03:41:03;12.07;;;8.60;;
55423;SDS011;41294;42.666;23.350;2022-10-30T03:43:29;13.33;;;8.00;;
55423;SDS011;41294;42.666;23.350;2022-10-30T03:45:55;12.00;;;8.47;;
55423;SDS011;41294;42.666;23.350;2022-10-30T03:48:22;11.60;;;8.07;;
55423;SDS011;41294;42.666;23.350;2022-10-30T03:50:51;14.63;;;8.77;;
55423;SDS011;41294;42.666;23.350;2022-10-30T03:53:17;11.70;;;7.83;;
55423;SDS011;41294;42.666;23.350;2022-10-30T03:55:42;11.43;;;8.07;;
55423;SDS011;41294;42.666;23.350;2022-10-30T03:58:08;13.80;;;9.27;;
55423;SDS011;41294;42.666;23.350;2022-10-30T04:00:33;12.00;;;8.30;;
55423;SDS011;41294;42.666;23.350;2022-10-30T04:02:59;11.10;;;8.30;;
55423;SDS011;41294;42.666;23.350;2022-10-30T04:05:25;16.70;;;9.17;;
55423;SDS011;41294;42.666;23.350;2022-10-30T04:08:02;12.70;;;9.20;;
55423;SDS011;41294;42.666;23.350;2022-10-30T04:10:31;10.23;;;8.23;;
55423;SDS011;41294;42.666;23.350;2022-10-30T04:13:04;11.67;;;8.77;;
55423;SDS011;41294;42.666;23.350;2022-10-30T04:15:31;14.67;;;8.53;;
55423;SDS011;41294;42.666;23.350;2022-10-30T04:17:57;14.03;;;9.13;;
55423;SDS011;41294;42.666;23.350;2022-10-30T04:20:23;12.90;;;8.87;;
55423;SDS011;41294;42.666;23.350;2022-10-30T04:22:56;11.50;;;8.37;;
55423;SDS011;41294;42.666;23.350;2022-10-30T04:25:27;14.40;;;9.40;;
55423;SDS011;41294;42.666;23.350;2022-10-30T04:27:53;12.10;;;8.67;;
55423;SDS011;41294;42.666;23.350;2022-10-30T04:30:19;18.37;;;8.77;;
55423;SDS011;41294;42.666;23.350;2022-10-30T04:32:46;10.10;;;8.40;;
55423;SDS011;41294;42.666;23.350;2022-10-30T04:35:17;12.07;;;8.60;;
55423;SDS011;41294;42.666;23.350;2022-10-30T04:37:50;12.97;;;8.97;;
55423;SDS011;41294;42.666;23.350;2022-10-30T04:40:20;10.10;;;7.87;;
55423;SDS011;41294;42.666;23.350;2022-10-30T04:42:47;14.27;;;8.47;;
55423;SDS011;41294;42.666;23.350;2022-10-30T04:45:12;11.93;;;8.47;;
55423;SDS011;41294;42.666;23.350;2022-10-30T04:47:38;10.50;;;8.97;;
55423;SDS011;41294;42.666;23.350;2022-10-30T04:50:04;14.33;;;8.93;;
55423;SDS011;41294;42.666;23.350;2022-10-30T04:52:29;11.40;;;8.97;;
55423;SDS011;41294;42.666;23.350;2022-10-30T04:54:55;11.47;;;9.03;;
55423;SDS011;41294;42.666;23.350;2022-10-30T04:57:20;11.67;;;9.03;;
55423;SDS011;41294;42.666;23.350;2022-10-30T04:59:46;15.87;;;9.13;;
55423;SDS011;41294;42.666;23.350;2022-10-30T05:02:11;12.90;;;8.53;;
55423;SDS011;41294;42.666;23.350;2022-10-30T05:04:36;16.23;;;9.87;;
55423;SDS011;41294;42.666;23.350;2022-10-30T05:07:02;11.90;;;8.60;;
55423;SDS011;41294;42.666;23.350;2022-10-30T05:09:27;10.33;;;8.57;;
55423;SDS011;41294;42.666;23.350;2022-10-30T05:11:53;10.83;;;8.40;;
55423;SDS011;41294;42.666;23.350;2022-10-30T05:14:19;10.93;;;8.43;;
55423;SDS011;41294;42.666;23.350;2022-10-30T05:16:44;11.60;;;8.77;;
55423;SDS011;41294;42.666;23.350;2022-10-30T05:19:09;10.50;;;8.73;;
55423;SDS011;41294;42.666;23.350;2022-10-30T05:21:35;12.07;;;9.33;;
55423;SDS011;41294;42.666;23.350;2022-10-30T05:24:00;11.90;;;8.43;;
55423;SDS011;41294;42.666;23.350;2022-10-30T05:26:26;10.83;;;8.67;;
55423;SDS011;41294;42.666;23.350;2022-10-30T05:28:51;13.90;;;8.53;;
55423;SDS011;41294;42.666;23.350;2022-10-30T05:31:17;11.17;;;8.23;;
55423;SDS011;41294;42.666;23.350;2022-10-30T05:33:42;10.87;;;8.43;;
55423;SDS011;41294;42.666;23.350;2022-10-30T05:36:08;10.30;;;8.83;;
55423;SDS011;41294;42.666;23.350;2022-10-30T05:38:33;8.77;;;7.83;;
55423;SDS011;41294;42.666;23.350;2022-10-30T05:40:59;11.80;;;8.17;;
55423;SDS011;41294;42.666;23.350;2022-10-30T05:43:24;11.53;;;7.57;;
55423;SDS011;41294;42.666;23.350;2022-10-30T05:45:50;12.63;;;7.27;;
55423;SDS011;41294;42.666;23.350;2022-10-30T05:48:15;10.83;;;8.83;;
55423;SDS011;41294;42.666;23.350;2022-10-30T05:50:40;9.10;;;7.87;;
55423;SDS011;41294;42.666;23.350;2022-10-30T05:53:06;9.47;;;7.77;;
55423;SDS011;41294;42.666;23.350;2022-10-30T05:55:31;15.47;;;8.83;;
55423;SDS011;41294;42.666;23.350;2022-10-30T05:58:04;14.77;;;7.97;;
55423;SDS011;41294;42.666;23.350;2022-10-30T06:00:31;14.67;;;8.63;;
55423;SDS011;41294;42.666;23.350;2022-10-30T06:03:01;9.73;;;7.67;;
55423;SDS011;41294;42.666;23.350;2022-10-30T06:05:29;12.17;;;7.67;;
55423;SDS011;41294;42.666;23.350;2022-10-30T06:07:56;9.17;;;7.70;;
55423;SDS011;41294;42.666;23.350;2022-10-30T06:10:25;11.10;;;8.27;;
55423;SDS011;41294;42.666;23.350;2022-10-30T06:12:52;13.33;;;8.57;;
55423;SDS011;41294;42.666;23.350;2022-10-30T06:15:18;9.93;;;8.37;;
55423;SDS011;41294;42.666;23.350;2022-10-30T06:17:43;11.83;;;9.03;;
55423;SDS011;41294;42.666;23.350;2022-10-30T06:20:09;15.07;;;9.63;;
55423;SDS011;41294;42.666;23.350;2022-10-30T06:22:34;12.63;;;9.10;;
55423;SDS011;41294;42.666;23.350;2022-10-30T06:25:00;15.60;;;9.77;;
55423;SDS011;41294;42.666;23.350;2022-10-30T06:27:25;15.00;;;10.80;;
55423;SDS011;41294;42.666;23.350;2022-10-30T06:29:51;16.50;;;10.50;;
55423;SDS011;41294;42.666;23.350;2022-10-30T06:32:18;17.40;;;10.47;;
55423;SDS011;41294;42.666;23.350;2022-10-30T06:34:44;13.20;;;9.63;;
55423;SDS011;41294;42.666;23.350;2022-10-30T06:37:10;18.40;;;11.77;;
55423;SDS011;41294;42.666;23.350;2022-10-30T06:39:35;16.83;;;11.93;;
55423;SDS011;41294;42.666;23.350;2022-10-30T06:42:01;19.80;;;11.85;;
55423;SDS011;41294;42.666;23.350;2022-10-30T06:44:26;18.88;;;12.43;;
55423;SDS011;41294;42.666;23.350;2022-10-30T06:46:52;16.97;;;12.50;;
55423;SDS011;41294;42.666;23.350;2022-10-30T06:49:18;20.70;;;12.90;;
55423;SDS011;41294;42.666;23.350;2022-10-30T06:51:44;18.47;;;12.73;;
55423;SDS011;41294;42.666;23.350;2022-10-30T06:54:10;20.07;;;12.20;;
55423;SDS011;41294;42.666;23.350;2022-10-30T06:56:36;18.27;;;12.63;;
55423;SDS011;41294;42.666;23.350;2022-10-30T06:59:01;19.93;;;12.77;;
55423;SDS011;41294;42.666;23.350;2022-10-30T07:01:26;16.60;;;12.57;;
55423;SDS011;41294;42.666;23.350;2022-10-30T07:03:54;21.70;;;15.38;;
55423;SDS011;41294;42.666;23.350;2022-10-30T07:06:20;26.08;;;16.23;;
55423;SDS011;41294;42.666;23.350;2022-10-30T07:08:45;21.85;;;15.40;;
55423;SDS011;41294;42.666;23.350;2022-10-30T07:11:11;20.58;;;16.30;;
55423;SDS011;41294;42.666;23.350;2022-10-30T07:13:36;24.00;;;15.40;;
55423;SDS011;41294;42.666;23.350;2022-10-30T07:16:02;21.75;;;16.10;;
55423;SDS011;41294;42.666;23.350;2022-10-30T07:18:27;21.48;;;14.98;;
55423;SDS011;41294;42.666;23.350;2022-10-30T07:20:53;19.80;;;16.20;;
55423;SDS011;41294;42.666;23.350;2022-10-30T07:23:20;20.90;;;15.23;;
55423;SDS011;41294;42.666;23.350;2022-10-30T07:25:46;17.67;;;15.75;;
55423;SDS011;41294;42.666;23.350;2022-10-30T07:28:11;22.83;;;14.68;;
55423;SDS011;41294;42.666;23.350;2022-10-30T07:30:37;20.63;;;14.20;;
55423;SDS011;41294;42.666;23.350;2022-10-30T07:33:03;17.33;;;14.60;;
55423;SDS011;41294;42.666;23.350;2022-10-30T07:35:30;17.08;;;14.75;;
55423;SDS011;41294;42.666;23.350;2022-10-30T07:38:04;21.92;;;14.70;;
55423;SDS011;41294;42.666;23.350;2022-10-30T07:40:31;18.73;;;14.73;;
55423;SDS011;41294;42.666;23.350;2022-10-30T07:42:58;19.08;;;14.10;;
55423;SDS011;41294;42.666;23.350;2022-10-30T07:45:25;18.98;;;13.77;;
55423;SDS011;41294;42.666;23.350;2022-10-30T07:47:51;17.20;;;14.43;;
55423;SDS011;41294;42.666;23.350;2022-10-30T07:50:17;17.15;;;13.43;;
55423;SDS011;41294;42.666;23.350;2022-10-30T07:52:42;15.40;;;12.55;;
55423;SDS011;41294;42.666;23.350;2022-10-30T07:55:08;20.40;;;12.63;;
55423;SDS011;41294;42.666;23.350;2022-10-30T07:57:34;15.43;;;12.15;;
55423;SDS011;41294;42.666;23.350;2022-10-30T08:00:02;18.65;;;11.60;;
55423;SDS011;41294;42.666;23.350;2022-10-30T08:02:32;15.27;;;11.93;;
55423;SDS011;41294;42.666;23.350;2022-10-30T08:04:58;15.98;;;12.23;;
55423;SDS011;41294;42.666;23.350;2022-10-30T08:07:28;16.70;;;11.93;;
55423;SDS011;41294;42.666;23.350;2022-10-30T08:09:54;14.35;;;11.05;;
55423;SDS011;41294;42.666;23.350;2022-10-30T08:12:20;14.90;;;11.00;;
55423;SDS011;41294;42.666;23.350;2022-10-30T08:14:45;16.25;;;12.02;;
55423;SDS011;41294;42.666;23.350;2022-10-30T08:17:11;15.05;;;12.32;;
55423;SDS011;41294;42.666;23.350;2022-10-30T08:19:36;14.60;;;12.68;;
55423;SDS011;41294;42.666;23.350;2022-10-30T08:22:02;16.45;;;12.15;;
55423;SDS011;41294;42.666;23.350;2022-10-30T08:24:27;16.30;;;11.25;;
55423;SDS011;41294;42.666;23.350;2022-10-30T08:26:53;14.90;;;11.95;;
55423;SDS011;41294;42.666;23.350;2022-10-30T08:29:18;16.33;;;13.05;;
55423;SDS011;41294;42.666;23.350;2022-10-30T08:31:46;14.05;;;12.05;;
55423;SDS011;41294;42.666;23.350;2022-10-30T08:34:12;17.60;;;11.52;;
55423;SDS011;41294;42.666;23.350;2022-10-30T08:36:38;15.85;;;11.27;;
55423;SDS011;41294;42.666;23.350;2022-10-30T08:39:03;15.00;;;11.13;;
55423;SDS011;41294;42.666;23.350;2022-10-30T08:41:29;17.13;;;11.88;;
55423;SDS011;41294;42.666;23.350;2022-10-30T08:43:54;18.92;;;10.95;;
55423;SDS011;41294;42.666;23.350;2022-10-30T08:46:20;18.08;;;11.18;;
55423;SDS011;41294;42.666;23.350;2022-10-30T08:48:45;13.18;;;11.07;;
55423;SDS011;41294;42.666;23.350;2022-10-30T08:51:10;17.88;;;11.10;;
55423;SDS011;41294;42.666;23.350;2022-10-30T08:53:36;15.68;;;10.63;;
55423;SDS011;41294;42.666;23.350;2022-10-30T08:56:01;15.20;;;12.10;;
55423;SDS011;41294;42.666;23.350;2022-10-30T08:58:27;14.90;;;11.65;;
55423;SDS011;41294;42.666;23.350;2022-10-30T09:00:53;17.98;;;11.20;;
55423;SDS011;41294;42.666;23.350;2022-10-30T09:03:19;15.27;;;11.90;;
55423;SDS011;41294;42.666;23.350;2022-10-30T09:05:44;16.58;;;11.55;;
55423;SDS011;41294;42.666;23.350;2022-10-30T09:08:09;17.13;;;11.45;;
55423;SDS011;41294;42.666;23.350;2022-10-30T09:10:35;15.50;;;11.27;;
55423;SDS011;41294;42.666;23.350;2022-10-30T09:13:00;15.30;;;11.00;;
55423;SDS011;41294;42.666;23.350;2022-10-30T09:15:26;16.90;;;12.30;;
55423;SDS011;41294;42.666;23.350;2022-10-30T09:17:58;15.82;;;12.15;;
55423;SDS011;41294;42.666;23.350;2022-10-30T09:20:25;13.50;;;11.27;;
55423;SDS011;41294;42.666;23.350;2022-10-30T09:22:51;14.52;;;11.70;;
55423;SDS011;41294;42.666;23.350;2022-10-30T09:25:17;15.63;;;11.80;;
55423;SDS011;41294;42.666;23.350;2022-10-30T09:27:43;17.55;;;11.90;;
55423;SDS011;41294;42.666;23.350;2022-10-30T09:30:09;15.07;;;12.13;;
55423;SDS011;41294;42.666;23.350;2022-10-30T09:32:36;15.43;;;11.40;;
55423;SDS011;41294;42.666;23.350;2022-10-30T09:35:01;16.90;;;11.82;;
55423;SDS011;41294;42.666;23.350;2022-10-30T09:37:27;17.35;;;11.38;;
55423;SDS011;41294;42.666;23.350;2022-10-30T09:39:52;17.13;;;11.55;;
55423;SDS011;41294;42.666;23.350;2022-10-30T09:50:39;12.68;;;9.82;;
55423;SDS011;41294;42.666;23.350;2022-10-30T09:53:29;12.77;;;9.30;;
55423;SDS011;41294;42.666;23.350;2022-10-30T10:01:32;15.48;;;9.07;;
55423;SDS011;41294;42.666;23.350;2022-10-30T10:04:32;15.35;;;9.07;;
55423;SDS011;41294;42.666;23.350;2022-10-30T10:06:59;10.05;;;8.32;;
55423;SDS011;41294;42.666;23.350;2022-10-30T10:09:32;10.68;;;8.65;;
55423;SDS011;41294;42.666;23.350;2022-10-30T10:12:22;12.52;;;8.50;;
55423;SDS011;41294;42.666;23.350;2022-10-30T10:14:53;11.07;;;8.50;;
55423;SDS011;41294;42.666;23.350;2022-10-30T10:17:27;10.38;;;8.45;;
55423;SDS011;41294;42.666;23.350;2022-10-30T10:19:59;17.40;;;8.27;;
55423;SDS011;41294;42.666;23.350;2022-10-30T10:22:37;18.95;;;9.18;;
55423;SDS011;41294;42.666;23.350;2022-10-30T10:25:11;16.75;;;7.85;;
55423;SDS011;41294;42.666;23.350;2022-10-30T10:27:42;23.60;;;9.95;;
55423;SDS011;41294;42.666;23.350;2022-10-30T10:33:32;11.73;;;6.88;;
55423;SDS011;41294;42.666;23.350;2022-10-30T10:36:29;9.38;;;6.90;;
55423;SDS011;41294;42.666;23.350;2022-10-30T10:42:02;11.25;;;7.20;;
55423;SDS011;41294;42.666;23.350;2022-10-30T10:47:16;8.88;;;6.68;;
55423;SDS011;41294;42.666;23.350;2022-10-30T10:52:48;8.95;;;6.55;;
55423;SDS011;41294;42.666;23.350;2022-10-30T10:55:16;10.43;;;6.80;;
55423;SDS011;41294;42.666;23.350;2022-10-30T10:57:44;10.27;;;6.55;;
55423;SDS011;41294;42.666;23.350;2022-10-30T11:00:13;7.47;;;5.32;;
55423;SDS011;41294;42.666;23.350;2022-10-30T11:07:56;5.03;;;3.83;;
55423;SDS011;41294;42.666;23.350;2022-10-30T11:10:24;7.30;;;3.92;;
55423;SDS011;41294;42.666;23.350;2022-10-30T11:12:50;10.70;;;4.10;;
55423;SDS011;41294;42.666;23.350;2022-10-30T11:18:03;5.38;;;3.92;;
55423;SDS011;41294;42.666;23.350;2022-10-30T11:23:01;8.73;;;3.97;;
55423;SDS011;41294;42.666;23.350;2022-10-30T11:25:34;8.43;;;3.92;;
55423;SDS011;41294;42.666;23.350;2022-10-30T11:28:02;10.43;;;3.88;;
55423;SDS011;41294;42.666;23.350;2022-10-30T11:30:29;6.70;;;3.72;;
55423;SDS011;41294;42.666;23.350;2022-10-30T11:32:55;8.52;;;4.15;;
55423;SDS011;41294;42.666;23.350;2022-10-30T11:35:22;4.63;;;3.30;;
55423;SDS011;41294;42.666;23.350;2022-10-30T11:37:51;17.08;;;13.85;;
55423;SDS011;41294;42.666;23.350;2022-10-30T11:40:49;15.70;;;12.30;;
55423;SDS011;41294;42.666;23.350;2022-10-30T11:43:18;42.78;;;33.67;;
55423;SDS011;41294;42.666;23.350;2022-10-30T11:45:46;27.88;;;20.63;;
55423;SDS011;41294;42.666;23.350;2022-10-30T11:48:35;6.30;;;4.28;;
55423;SDS011;41294;42.666;23.350;2022-10-30T11:51:02;6.20;;;3.58;;
55423;SDS011;41294;42.666;23.350;2022-10-30T11:53:29;6.55;;;3.92;;
55423;SDS011;41294;42.666;23.350;2022-10-30T11:56:03;7.75;;;3.60;;
55423;SDS011;41294;42.666;23.350;2022-10-30T11:58:46;4.70;;;3.22;;
55423;SDS011;41294;42.666;23.350;2022-10-30T12:01:22;6.13;;;3.60;;
55423;SDS011;41294;42.666;23.350;2022-10-30T12:03:50;7.28;;;3.92;;
55423;SDS011;41294;42.666;23.350;2022-10-30T12:06:18;6.15;;;3.70;;
55423;SDS011;41294;42.666;23.350;2022-10-30T12:11:26;5.53;;;3.45;;
55423;SDS011;41294;42.666;23.350;2022-10-30T12:13:54;3.75;;;3.17;;
55423;SDS011;41294;42.666;23.350;2022-10-30T12:16:20;8.40;;;3.53;;
55423;SDS011;41294;42.666;23.350;2022-10-30T12:18:53;5.53;;;3.45;;
55423;SDS011;41294;42.666;23.350;2022-10-30T12:21:27;7.65;;;3.70;;
55423;SDS011;41294;42.666;23.350;2022-10-30T12:24:00;6.68;;;3.00;;
55423;SDS011;41294;42.666;23.350;2022-10-30T12:26:31;7.18;;;3.45;;
55423;SDS011;41294;42.666;23.350;2022-10-30T12:29:00;7.53;;;4.32;;
55423;SDS011;41294;42.666;23.350;2022-10-30T12:34:05;5.60;;;3.40;;
55423;SDS011;41294;42.666;23.350;2022-10-30T12:37:02;5.90;;;3.30;;
55423;SDS011;41294;42.666;23.350;2022-10-30T12:42:21;4.32;;;3.42;;
55423;SDS011;41294;42.666;23.350;2022-10-30T12:47:26;8.10;;;3.13;;
55423;SDS011;41294;42.666;23.350;2022-10-30T12:49:59;6.03;;;2.83;;
55423;SDS011;41294;42.666;23.350;2022-10-30T12:52:34;4.85;;;2.80;;
55423;SDS011;41294;42.666;23.350;2022-10-30T12:55:26;6.80;;;2.97;;
55423;SDS011;41294;42.666;23.350;2022-10-30T13:00:27;5.95;;;2.42;;
55423;SDS011;41294;42.666;23.350;2022-10-30T13:03:04;3.70;;;2.97;;
55423;SDS011;41294;42.666;23.350;2022-10-30T13:08:35;3.67;;;2.72;;
55423;SDS011;41294;42.666;23.350;2022-10-30T13:14:01;4.38;;;2.72;;
55423;SDS011;41294;42.666;23.350;2022-10-30T13:16:30;5.20;;;2.63;;
55423;SDS011;41294;42.666;23.350;2022-10-30T13:18:57;4.85;;;2.28;;
55423;SDS011;41294;42.666;23.350;2022-10-30T13:21:33;8.10;;;2.70;;
55423;SDS011;41294;42.666;23.350;2022-10-30T13:24:22;3.05;;;2.72;;
55423;SDS011;41294;42.666;23.350;2022-10-30T13:27:16;7.30;;;2.75;;
55423;SDS011;41294;42.666;23.350;2022-10-30T13:32:36;5.70;;;2.00;;
55423;SDS011;41294;42.666;23.350;2022-10-30T13:35:29;4.72;;;1.90;;
55423;SDS011;41294;42.666;23.350;2022-10-30T13:40:54;4.43;;;2.10;;
55423;SDS011;41294;42.666;23.350;2022-10-30T13:54:28;3.22;;;1.95;;
55423;SDS011;41294;42.666;23.350;2022-10-30T13:57:00;6.78;;;2.20;;
55423;SDS011;41294;42.666;23.350;2022-10-30T14:15:39;21.88;;;16.98;;
55423;SDS011;41294;42.666;23.350;2022-10-30T14:20:38;6.43;;;2.50;;
55423;SDS011;41294;42.666;23.350;2022-10-30T14:23:58;6.32;;;2.45;;
55423;SDS011;41294;42.666;23.350;2022-10-30T14:28:26;8.07;;;2.47;;
55423;SDS011;41294;42.666;23.350;2022-10-30T14:31:05;4.70;;;2.47;;
55423;SDS011;41294;42.666;23.350;2022-10-30T14:36:17;5.97;;;2.80;;
55423;SDS011;41294;42.666;23.350;2022-10-30T14:49:45;7.03;;;3.00;;
55423;SDS011;41294;42.666;23.350;2022-10-30T14:52:14;11.00;;;3.20;;
55423;SDS011;41294;42.666;23.350;2022-10-30T14:57:52;4.20;;;2.70;;
55423;SDS011;41294;42.666;23.350;2022-10-30T15:05:36;4.60;;;2.80;;
55423;SDS011;41294;42.666;23.350;2022-10-30T15:13:58;5.85;;;2.80;;
55423;SDS011;41294;42.666;23.350;2022-10-30T15:16:27;5.32;;;3.00;;
55423;SDS011;41294;42.666;23.350;2022-10-30T15:18:58;8.88;;;3.40;;
55423;SDS011;41294;42.666;23.350;2022-10-30T15:21:27;6.18;;;3.50;;
55423;SDS011;41294;42.666;23.350;2022-10-30T15:23:57;5.00;;;2.92;;
55423;SDS011;41294;42.666;23.350;2022-10-30T15:26:29;7.38;;;3.03;;
55423;SDS011;41294;42.666;23.350;2022-10-30T15:28:59;5.32;;;3.13;;
55423;SDS011;41294;42.666;23.350;2022-10-30T15:31:26;5.43;;;3.20;;
55423;SDS011;41294;42.666;23.350;2022-10-30T15:33:53;5.85;;;3.60;;
55423;SDS011;41294;42.666;23.350;2022-10-30T15:36:20;3.92;;;3.15;;
55423;SDS011;41294;42.666;23.350;2022-10-30T15:41:55;3.97;;;2.92;;
55423;SDS011;41294;42.666;23.350;2022-10-30T15:44:23;11.20;;;3.35;;
55423;SDS011;41294;42.666;23.350;2022-10-30T15:46:52;5.45;;;3.30;;
55423;SDS011;41294;42.666;23.350;2022-10-30T15:49:30;5.25;;;2.90;;
55423;SDS011;41294;42.666;23.350;2022-10-30T15:52:03;9.60;;;3.58;;
55423;SDS011;41294;42.666;23.350;2022-10-30T15:54:38;4.85;;;3.25;;
55423;SDS011;41294;42.666;23.350;2022-10-30T15:57:05;7.55;;;3.30;;
55423;SDS011;41294;42.666;23.350;2022-10-30T15:59:35;9.13;;;3.45;;
55423;SDS011;41294;42.666;23.350;2022-10-30T16:02:01;7.35;;;3.40;;
55423;SDS011;41294;42.666;23.350;2022-10-30T16:04:30;5.78;;;3.45;;
55423;SDS011;41294;42.666;23.350;2022-10-30T16:07:02;3.92;;;3.53;;
55423;SDS011;41294;42.666;23.350;2022-10-30T16:09:59;7.38;;;3.80;;
55423;SDS011;41294;42.666;23.350;2022-10-30T16:12:30;7.30;;;3.65;;
55423;SDS011;41294;42.666;23.350;2022-10-30T16:15:05;5.55;;;3.50;;
55423;SDS011;41294;42.666;23.350;2022-10-30T16:17:32;4.15;;;3.58;;
55423;SDS011;41294;42.666;23.350;2022-10-30T16:19:59;5.32;;;3.83;;
55423;SDS011;41294;42.666;23.350;2022-10-30T16:22:28;7.15;;;3.97;;
55423;SDS011;41294;42.666;23.350;2022-10-30T16:24:58;6.55;;;3.40;;
55423;SDS011;41294;42.666;23.350;2022-10-30T16:27:24;6.40;;;4.00;;
55423;SDS011;41294;42.666;23.350;2022-10-30T16:29:52;5.97;;;3.83;;
55423;SDS011;41294;42.666;23.350;2022-10-30T16:32:24;8.65;;;4.00;;
55423;SDS011;41294;42.666;23.350;2022-10-30T16:34:57;5.55;;;3.90;;
55423;SDS011;41294;42.666;23.350;2022-10-30T16:40:14;7.32;;;3.90;;
55423;SDS011;41294;42.666;23.350;2022-10-30T16:42:54;4.28;;;3.47;;
55423;SDS011;41294;42.666;23.350;2022-10-30T16:47:57;8.13;;;3.50;;
55423;SDS011;41294;42.666;23.350;2022-10-30T16:50:29;4.90;;;3.47;;
55423;SDS011;41294;42.666;23.350;2022-10-30T16:53:05;6.28;;;3.80;;
55423;SDS011;41294;42.666;23.350;2022-10-30T16:55:31;7.20;;;3.70;;
55423;SDS011;41294;42.666;23.350;2022-10-30T16:57:57;6.20;;;3.38;;
55423;SDS011;41294;42.666;23.350;2022-10-30T17:00:27;5.10;;;3.67;;
55423;SDS011;41294;42.666;23.350;2022-10-30T17:02:55;4.63;;;3.33;;
55423;SDS011;41294;42.666;23.350;2022-10-30T17:05:32;7.03;;;3.75;;